createdAt,value
2018-06-07T00:00:24.827Z,51.99
2018-06-07T00:02:51.400Z,51.96
2018-06-07T00:05:18.263Z,51.90
2018-06-07T00:07:44.653Z,51.84
2018-06-07T00:10:11.108Z,51.88
2018-06-07T00:12:38.742Z,51.99
2018-06-07T00:15:05.351Z,51.89
2018-06-07T00:17:31.758Z,51.82
2018-06-07T00:19:59.755Z,51.94
2018-06-07T00:22:26.137Z,51.87
2018-06-07T00:24:52.487Z,51.93
2018-06-07T00:27:19.156Z,51.91
2018-06-07T00:29:45.611Z,51.88
2018-06-07T00:32:11.988Z,51.89
2018-06-07T00:34:38.424Z,51.89
2018-06-07T00:37:04.892Z,51.81
2018-06-07T00:39:31.230Z,51.94
2018-06-07T00:41:57.693Z,51.89
2018-06-07T00:44:24.712Z,51.75
2018-06-07T00:46:51.354Z,51.86
2018-06-07T00:49:18.050Z,51.82
2018-06-07T00:51:44.804Z,51.82
2018-06-07T00:54:12.285Z,51.84
2018-06-07T00:56:39.108Z,51.77
2018-06-07T00:59:07.094Z,51.69
2018-06-07T01:01:36.500Z,51.79
2018-06-07T01:04:03.184Z,51.75
2018-06-07T01:06:29.775Z,52.04
2018-06-07T01:08:56.183Z,52.43
2018-06-07T01:11:22.783Z,52.60
2018-06-07T01:13:49.184Z,52.69
2018-06-07T01:16:15.551Z,52.94
2018-06-07T01:18:46.733Z,52.76
2018-06-07T01:21:13.528Z,52.94
2018-06-07T01:23:39.958Z,52.89
2018-06-07T01:26:08.408Z,52.85
2018-06-07T01:28:35.060Z,52.85
2018-06-07T01:31:01.606Z,52.72
2018-06-07T01:33:27.983Z,52.97
2018-06-07T01:35:54.451Z,52.85
2018-06-07T01:38:20.777Z,53.00
2018-06-07T01:40:47.222Z,52.91
2018-06-07T01:43:13.535Z,52.84
2018-06-07T01:45:39.880Z,52.83
2018-06-07T01:48:06.199Z,53.00
2018-06-07T01:50:32.534Z,53.02
2018-06-07T01:52:58.911Z,52.86
2018-06-07T01:55:25.329Z,52.65
2018-06-07T01:57:52.568Z,52.93
2018-06-07T02:00:19.177Z,52.62
2018-06-07T02:02:45.552Z,52.78
2018-06-07T02:05:12.009Z,52.81
2018-06-07T02:07:38.391Z,52.78
2018-06-07T02:10:04.783Z,52.85
2018-06-07T02:12:31.135Z,52.82
2018-06-07T02:14:57.638Z,52.78
2018-06-07T02:17:23.964Z,52.76
2018-06-07T02:19:50.335Z,52.76
2018-06-07T02:22:18.687Z,52.82
2018-06-07T02:24:45.090Z,52.70
2018-06-07T02:27:11.495Z,52.56
2018-06-07T02:29:38.212Z,52.69
2018-06-07T02:32:04.568Z,52.75
2018-06-07T02:34:31.215Z,52.62
2018-06-07T02:36:57.727Z,52.82
2018-06-07T02:39:24.084Z,52.75
2018-06-07T02:41:50.863Z,52.62
2018-06-07T02:44:17.289Z,52.66
2018-06-07T02:46:43.658Z,52.58
2018-06-07T02:49:12.268Z,52.67
2018-06-07T02:51:38.707Z,52.64
2018-06-07T02:54:05.073Z,52.51
2018-06-07T02:56:31.597Z,52.47
2018-06-07T02:58:58.010Z,52.33
2018-06-07T03:01:24.395Z,52.22
2018-06-07T03:06:22.367Z,51.98
2018-06-07T03:08:48.688Z,51.83
2018-06-07T03:11:15.033Z,51.76
2018-06-07T03:13:41.380Z,51.72
2018-06-07T03:16:07.829Z,51.54
2018-06-07T03:18:34.197Z,51.46
2018-06-07T03:21:00.692Z,51.32
2018-06-07T03:23:27.040Z,51.25
2018-06-07T03:25:53.897Z,51.17
2018-06-07T03:28:20.636Z,51.00
2018-06-07T03:30:47.219Z,50.90
2018-06-07T03:33:13.759Z,50.85
2018-06-07T03:35:40.376Z,50.79
2018-06-07T03:38:06.734Z,50.69
2018-06-07T03:40:33.222Z,50.75
2018-06-07T03:42:59.945Z,50.61
2018-06-07T03:45:26.320Z,50.53
2018-06-07T03:47:52.715Z,50.46
2018-06-07T03:50:19.185Z,50.37
2018-06-07T03:52:45.581Z,50.34
2018-06-07T03:55:11.991Z,50.17
2018-06-07T03:57:38.402Z,50.31
2018-06-07T04:00:05.057Z,50.24
2018-06-07T04:02:31.401Z,50.10
2018-06-07T04:04:57.855Z,50.34
2018-06-07T04:07:24.272Z,50.15
2018-06-07T04:09:50.825Z,49.82
2018-06-07T04:12:17.175Z,49.94
2018-06-07T04:14:43.533Z,49.98
2018-06-07T04:17:09.854Z,49.84
2018-06-07T04:19:36.631Z,50.08
2018-06-07T04:22:02.955Z,50.04
2018-06-07T04:24:29.388Z,49.85
2018-06-07T04:26:55.781Z,50.08
2018-06-07T04:29:22.150Z,50.21
2018-06-07T04:31:48.571Z,50.14
2018-06-07T04:34:14.954Z,50.08
2018-06-07T04:36:41.403Z,50.47
2018-06-07T04:39:07.759Z,50.52
2018-06-07T04:41:34.145Z,50.14
2018-06-07T04:44:00.475Z,49.91
2018-06-07T04:46:26.968Z,49.90
2018-06-07T04:48:53.308Z,49.75
2018-06-07T04:51:19.683Z,49.82
2018-06-07T04:53:46.062Z,49.68
2018-06-07T04:56:12.517Z,49.72
2018-06-07T04:58:39.037Z,50.28
2018-06-07T05:01:05.450Z,50.11
2018-06-07T05:03:32.113Z,50.05
2018-06-07T05:05:58.456Z,49.98
2018-06-07T05:08:24.816Z,50.03
2018-06-07T05:10:51.288Z,50.10
2018-06-07T05:13:17.611Z,50.02
2018-06-07T05:15:44.045Z,50.05
2018-06-07T05:18:10.516Z,50.21
2018-06-07T05:20:37.048Z,50.45
2018-06-07T05:23:03.396Z,50.49
2018-06-07T05:25:29.790Z,50.68
2018-06-07T05:27:56.159Z,50.61
2018-06-07T05:30:22.578Z,50.64
2018-06-07T05:32:48.920Z,50.81
2018-06-07T05:35:15.254Z,50.69
2018-06-07T05:37:41.659Z,50.49
2018-06-07T05:40:08.321Z,50.83
2018-06-07T05:42:34.694Z,50.80
2018-06-07T05:45:01.065Z,50.46
2018-06-07T05:47:27.593Z,50.60
2018-06-07T05:49:54.057Z,50.27
2018-06-07T05:52:20.532Z,50.60
2018-06-07T05:54:46.990Z,50.41
2018-06-07T05:57:14.015Z,50.53
2018-06-07T05:59:40.541Z,50.31
2018-06-07T06:02:06.998Z,50.32
2018-06-07T06:04:33.542Z,50.60
2018-06-07T06:07:00.595Z,50.60
2018-06-07T06:09:27.062Z,50.42
2018-06-07T06:11:53.651Z,50.42
2018-06-07T06:14:20.079Z,50.56
2018-06-07T06:16:46.453Z,50.65
2018-06-07T06:19:14.034Z,50.40
2018-06-07T06:21:40.452Z,50.41
2018-06-07T06:24:07.084Z,50.10
2018-06-07T06:26:33.635Z,50.47
2018-06-07T06:29:00.305Z,50.40
2018-06-07T06:31:27.073Z,50.35
2018-06-07T06:33:54.903Z,50.47
2018-06-07T06:36:21.535Z,50.47
2018-06-07T06:38:47.873Z,50.18
2018-06-07T06:41:14.274Z,50.71
2018-06-07T06:43:40.919Z,50.27
2018-06-07T06:46:07.384Z,50.65
2018-06-07T06:48:33.894Z,50.27
2018-06-07T06:51:00.260Z,50.15
2018-06-07T06:53:26.891Z,50.36
2018-06-07T06:55:53.305Z,50.34
2018-06-07T06:58:19.644Z,50.40
2018-06-07T07:00:45.995Z,50.11
2018-06-07T07:03:12.429Z,50.29
2018-06-07T07:05:38.795Z,50.02
2018-06-07T07:08:05.191Z,50.30
2018-06-07T07:10:31.638Z,50.45
2018-06-07T07:12:58.076Z,50.26
2018-06-07T07:15:24.496Z,50.69
2018-06-07T07:17:50.914Z,50.45
2018-06-07T07:20:17.292Z,50.53
2018-06-07T07:22:43.837Z,50.63
2018-06-07T07:25:10.264Z,50.30
2018-06-07T07:27:36.606Z,50.76
2018-06-07T07:30:03.126Z,50.43
2018-06-07T07:32:29.884Z,50.64
2018-06-07T07:34:56.710Z,50.57
2018-06-07T07:37:23.195Z,50.53
2018-06-07T07:39:49.619Z,50.51
2018-06-07T07:42:15.972Z,50.56
2018-06-07T07:44:42.458Z,50.29
2018-06-07T07:47:08.917Z,50.34
2018-06-07T07:49:35.337Z,50.57
2018-06-07T07:52:01.730Z,50.63
2018-06-07T07:54:28.197Z,50.50
2018-06-07T07:56:54.569Z,50.59
2018-06-07T07:59:21.535Z,50.56
2018-06-07T08:01:48.083Z,50.59
2018-06-07T08:04:14.651Z,50.59
2018-06-07T08:06:41.023Z,50.51
2018-06-07T08:09:07.532Z,50.76
2018-06-07T08:11:34.383Z,50.58
2018-06-07T08:14:03.072Z,50.52
2018-06-07T08:16:29.435Z,50.46
2018-06-07T08:18:55.879Z,50.47
2018-06-07T08:21:22.595Z,50.66
2018-06-07T08:23:49.055Z,50.58
2018-06-07T08:26:15.501Z,50.81
2018-06-07T08:28:42.203Z,50.78
2018-06-07T08:31:09.023Z,50.62
2018-06-07T08:33:35.798Z,50.59
2018-06-07T08:36:02.430Z,50.64
2018-06-07T08:38:28.858Z,50.89
2018-06-07T08:40:55.266Z,50.72
2018-06-07T08:43:21.700Z,50.91
2018-06-07T08:45:48.113Z,51.08
2018-06-07T08:48:14.610Z,51.56
2018-06-07T08:50:41.133Z,51.32
2018-06-07T08:53:07.592Z,51.08
2018-06-07T08:55:33.971Z,51.40
2018-06-07T08:58:00.435Z,51.51
2018-06-07T09:00:27.163Z,51.47
2018-06-07T09:02:53.795Z,51.50
2018-06-07T09:05:20.346Z,51.43
2018-06-07T09:07:46.706Z,51.55
2018-06-07T09:10:13.201Z,51.89
2018-06-07T09:12:39.677Z,51.63
2018-06-07T09:15:06.151Z,51.60
2018-06-07T09:17:32.689Z,51.51
2018-06-07T09:19:59.113Z,51.71
2018-06-07T09:22:25.456Z,51.56
2018-06-07T09:24:51.944Z,51.40
2018-06-07T09:27:18.341Z,51.68
2018-06-07T09:29:44.775Z,51.60
2018-06-07T09:32:11.373Z,51.65
2018-06-07T09:34:37.794Z,51.63
2018-06-07T09:37:04.583Z,52.05
2018-06-07T09:39:30.952Z,51.88
2018-06-07T09:41:57.319Z,51.73
2018-06-07T09:44:23.853Z,51.70
2018-06-07T09:46:50.302Z,52.00
2018-06-07T09:49:16.945Z,51.93
2018-06-07T09:51:43.448Z,52.11
2018-06-07T09:54:10.007Z,51.89
2018-06-07T09:56:36.518Z,51.62
2018-06-07T09:59:03.091Z,51.81
2018-06-07T10:01:29.544Z,51.38
2018-06-07T10:03:56.053Z,51.66
2018-06-07T10:06:22.539Z,51.96
2018-06-07T10:08:49.707Z,51.61
2018-06-07T10:11:16.125Z,51.72
2018-06-07T10:18:46.022Z,51.33
2018-06-07T10:21:12.416Z,51.70
2018-06-07T10:23:38.846Z,51.67
2018-06-07T10:26:05.204Z,51.61
2018-06-07T10:28:31.668Z,51.43
2018-06-07T10:30:58.111Z,51.62
2018-06-07T10:33:24.560Z,51.52
2018-06-07T10:35:51.040Z,51.44
2018-06-07T10:38:17.634Z,51.32
2018-06-07T10:40:44.104Z,51.46
2018-06-07T10:43:10.777Z,50.95
2018-06-07T10:45:37.273Z,50.99
2018-06-07T10:48:03.657Z,50.88
2018-06-07T10:50:29.994Z,50.83
2018-06-07T10:52:57.212Z,50.71
2018-06-07T10:55:23.651Z,51.08
2018-06-07T10:57:50.167Z,50.94
2018-06-07T11:00:16.809Z,51.05
2018-06-07T11:02:43.226Z,50.98
2018-06-07T11:05:10.921Z,50.60
2018-06-07T11:07:37.368Z,50.41
2018-06-07T11:10:03.816Z,50.69
2018-06-07T11:12:30.347Z,50.70
2018-06-07T11:14:56.757Z,50.64
2018-06-07T11:17:30.623Z,50.85
2018-06-07T11:19:57.017Z,50.59
2018-06-07T11:22:23.762Z,50.52
2018-06-07T11:24:50.470Z,50.47
2018-06-07T11:27:18.012Z,50.47
2018-06-07T11:29:44.495Z,49.92
2018-06-07T11:32:11.076Z,49.92
2018-06-07T11:34:37.582Z,49.91
2018-06-07T11:37:06.608Z,49.19
2018-06-07T11:39:33.226Z,49.31
2018-06-07T11:41:59.638Z,49.28
2018-06-07T11:44:26.425Z,49.50
2018-06-07T11:46:53.301Z,49.56
2018-06-07T11:49:20.002Z,49.26
2018-06-07T11:51:46.694Z,49.05
2018-06-07T11:54:13.447Z,49.39
2018-06-07T11:56:40.424Z,49.13
2018-06-07T11:59:07.120Z,48.99
2018-06-07T12:01:33.867Z,48.03
2018-06-07T12:04:00.306Z,48.61
2018-06-07T12:06:26.693Z,49.11
2018-06-07T12:08:53.137Z,49.37
2018-06-07T12:11:19.684Z,49.27
2018-06-07T12:13:46.105Z,49.48
2018-06-07T12:16:12.543Z,49.15
2018-06-07T12:18:39.039Z,49.01
2018-06-07T12:21:05.475Z,48.43
2018-06-07T12:23:31.929Z,48.93
2018-06-07T12:25:58.537Z,48.72
2018-06-07T12:28:25.155Z,48.95
2018-06-07T12:30:51.651Z,48.95
2018-06-07T12:33:18.261Z,48.94
2018-06-07T12:35:44.867Z,49.36
2018-06-07T12:38:11.418Z,49.28
2018-06-07T12:40:37.982Z,48.86
2018-06-07T12:43:05.118Z,49.00
2018-06-07T12:45:31.526Z,49.10
2018-06-07T12:47:58.008Z,48.72
2018-06-07T12:50:25.524Z,48.99
2018-06-07T12:52:53.961Z,48.75
2018-06-07T12:55:20.505Z,48.76
2018-06-07T12:57:46.890Z,48.96
2018-06-07T13:00:13.492Z,49.06
2018-06-07T13:02:40.859Z,48.75
2018-06-07T13:05:07.343Z,48.83
2018-06-07T13:07:33.744Z,48.95
2018-06-07T13:10:00.254Z,48.95
2018-06-07T13:12:26.713Z,48.94
2018-06-07T13:14:53.045Z,48.97
2018-06-07T13:17:19.499Z,49.00
2018-06-07T13:19:45.928Z,48.91
2018-06-07T13:22:12.476Z,48.95
2018-06-07T13:24:38.940Z,49.01
2018-06-07T13:27:05.444Z,49.42
2018-06-07T13:29:32.825Z,49.21
2018-06-07T13:31:59.332Z,49.47
2018-06-07T13:34:25.870Z,49.50
2018-06-07T13:36:52.309Z,49.81
2018-06-07T13:39:18.752Z,49.40
2018-06-07T13:41:45.147Z,49.59
2018-06-07T13:44:11.485Z,49.50
2018-06-07T13:46:37.956Z,49.53
2018-06-07T13:49:04.381Z,49.45
2018-06-07T13:51:30.781Z,49.55
2018-06-07T13:53:57.152Z,49.49
2018-06-07T13:56:23.529Z,49.51
2018-06-07T13:58:51.544Z,49.34
2018-06-07T14:01:17.989Z,49.81
2018-06-07T14:03:44.392Z,49.48
2018-06-07T14:06:10.850Z,49.54
2018-06-07T14:08:37.197Z,49.58
2018-06-07T14:11:03.599Z,49.82
2018-06-07T14:13:30.084Z,49.61
2018-06-07T14:15:56.523Z,49.53
2018-06-07T14:18:23.538Z,49.78
2018-06-07T14:20:50.020Z,49.53
2018-06-07T14:23:16.424Z,49.73
2018-06-07T14:25:42.820Z,49.85
2018-06-07T14:28:09.180Z,49.65
2018-06-07T14:30:35.523Z,49.71
2018-06-07T14:33:02.074Z,49.53
2018-06-07T14:35:28.505Z,49.59
2018-06-07T14:37:54.864Z,49.40
2018-06-07T14:40:21.332Z,49.62
2018-06-07T14:42:47.673Z,49.63
2018-06-07T14:45:14.098Z,49.56
2018-06-07T14:47:40.489Z,49.65
2018-06-07T14:50:06.832Z,49.46
2018-06-07T14:52:34.189Z,49.48
2018-06-07T14:55:00.604Z,49.52
2018-06-07T14:57:26.953Z,49.70
2018-06-07T14:59:53.322Z,49.72
2018-06-07T15:02:19.672Z,49.64
2018-06-07T15:04:46.034Z,50.34
2018-06-07T15:07:12.390Z,50.38
2018-06-07T15:09:38.826Z,50.18
2018-06-07T15:12:05.158Z,50.27
2018-06-07T15:14:31.740Z,50.61
2018-06-07T15:16:58.169Z,50.38
2018-06-07T15:19:24.550Z,50.28
2018-06-07T15:21:50.952Z,50.59
2018-06-07T15:24:17.288Z,50.50
2018-06-07T15:26:43.676Z,50.69
2018-06-07T15:29:10.215Z,50.22
2018-06-07T15:31:36.626Z,50.08
2018-06-07T15:34:03.020Z,50.61
2018-06-07T15:36:29.517Z,50.21
2018-06-07T15:38:56.033Z,50.26
2018-06-07T15:41:22.390Z,50.50
2018-06-07T15:43:48.735Z,50.71
2018-06-07T15:46:15.088Z,50.62
2018-06-07T15:48:41.431Z,50.70
2018-06-07T15:51:07.771Z,50.64
2018-06-07T15:53:34.103Z,50.18
2018-06-07T15:56:00.477Z,50.14
2018-06-07T15:58:26.839Z,50.33
2018-06-07T16:00:53.184Z,49.98
2018-06-07T16:03:19.857Z,50.21
2018-06-07T16:05:46.366Z,50.11
2018-06-07T16:08:12.743Z,50.05
2018-06-07T16:10:39.257Z,50.41
2018-06-07T16:13:05.592Z,50.30
2018-06-07T16:15:32.104Z,50.83
2018-06-07T16:17:58.482Z,50.56
2018-06-07T16:20:24.875Z,50.58
2018-06-07T16:22:51.272Z,50.88
2018-06-07T16:25:17.687Z,50.81
2018-06-07T16:27:44.040Z,51.07
2018-06-07T16:30:10.442Z,51.04
2018-06-07T16:32:36.781Z,51.30
2018-06-07T16:35:03.176Z,51.43
2018-06-07T16:37:29.531Z,51.15
2018-06-07T16:39:55.941Z,51.50
2018-06-07T16:42:22.333Z,51.37
2018-06-07T16:44:48.660Z,51.46
2018-06-07T16:47:15.093Z,51.46
2018-06-07T16:49:41.436Z,51.75
2018-06-07T16:52:07.791Z,51.66
2018-06-07T16:54:34.203Z,51.78
2018-06-07T16:57:00.533Z,51.97
2018-06-07T16:59:26.899Z,51.56
2018-06-07T17:01:53.237Z,51.62
2018-06-07T17:04:19.615Z,51.32
2018-06-07T17:06:45.947Z,51.66
2018-06-07T17:09:12.323Z,52.00
2018-06-07T17:11:38.915Z,52.48
2018-06-07T17:14:05.259Z,52.43
2018-06-07T17:16:31.586Z,51.84
2018-06-07T17:18:57.969Z,52.20
2018-06-07T17:21:24.359Z,53.01
2018-06-07T17:23:50.749Z,53.27
2018-06-07T17:26:17.155Z,52.84
2018-06-07T17:28:43.540Z,52.96
2018-06-07T17:31:09.849Z,52.88
2018-06-07T17:33:36.255Z,52.26
2018-06-07T17:36:02.746Z,52.27
2018-06-07T17:38:29.230Z,52.72
2018-06-07T17:40:55.551Z,52.64
2018-06-07T17:43:21.959Z,52.37
2018-06-07T17:45:48.425Z,51.66
2018-06-07T17:48:14.752Z,52.05
2018-06-07T17:50:41.082Z,51.15
2018-06-07T17:53:07.485Z,50.88
2018-06-07T17:55:33.811Z,51.67
2018-06-07T17:58:00.341Z,51.86
2018-06-07T18:00:26.744Z,51.62
2018-06-07T18:02:53.150Z,51.66
2018-06-07T18:05:19.480Z,51.93
2018-06-07T18:07:45.862Z,52.47
2018-06-07T18:10:12.229Z,52.15
2018-06-07T18:12:38.599Z,52.25
2018-06-07T18:15:04.911Z,51.79
2018-06-07T18:17:31.339Z,52.20
2018-06-07T18:19:57.626Z,52.11
2018-06-07T18:22:24.090Z,51.98
2018-06-07T18:24:50.589Z,52.96
2018-06-07T18:27:16.993Z,52.47
2018-06-07T18:29:43.319Z,52.65
2018-06-07T18:32:09.632Z,52.72
2018-06-07T18:34:35.977Z,52.52
2018-06-07T18:37:02.307Z,52.65
2018-06-07T18:39:28.705Z,52.91
2018-06-07T18:41:55.150Z,52.60
2018-06-07T18:44:21.503Z,52.75
2018-06-07T18:46:47.836Z,52.83
2018-06-07T18:49:14.248Z,52.91
2018-06-07T18:51:40.576Z,52.85
2018-06-07T18:54:06.965Z,52.63
2018-06-07T18:56:33.390Z,52.72
2018-06-07T18:58:59.717Z,52.71
2018-06-07T19:01:26.115Z,52.78
2018-06-07T19:03:52.450Z,52.97
2018-06-07T19:06:18.799Z,53.11
2018-06-07T19:08:45.307Z,53.01
2018-06-07T19:11:11.633Z,52.98
2018-06-07T19:13:37.956Z,53.13
2018-06-07T19:16:04.452Z,53.10
2018-06-07T19:18:30.776Z,52.98
2018-06-07T19:20:57.153Z,53.01
2018-06-07T19:23:23.589Z,53.07
2018-06-07T19:25:49.950Z,52.94
2018-06-07T19:28:16.327Z,53.14
2018-06-07T19:30:42.718Z,53.07
2018-06-07T19:33:09.084Z,53.36
2018-06-07T19:35:35.421Z,53.29
2018-06-07T19:38:01.796Z,53.36
2018-06-07T19:40:28.115Z,53.01
2018-06-07T19:42:54.457Z,53.26
2018-06-07T19:45:20.825Z,53.38
2018-06-07T19:47:47.363Z,53.89
2018-06-07T19:50:13.790Z,53.86
2018-06-07T19:52:40.127Z,53.64
2018-06-07T19:55:06.519Z,53.60
2018-06-07T19:57:32.981Z,53.14
2018-06-07T19:59:59.485Z,52.98
2018-06-07T20:02:25.824Z,53.02
2018-06-07T20:04:53.441Z,52.98
2018-06-07T20:07:19.823Z,52.99
2018-06-07T20:09:46.203Z,52.99
2018-06-07T20:12:12.559Z,52.70
2018-06-07T20:14:39.026Z,52.85
2018-06-07T20:17:05.362Z,52.77
2018-06-07T20:19:31.740Z,52.72
2018-06-07T20:21:58.105Z,52.82
2018-06-07T20:24:24.443Z,52.82
2018-06-07T20:26:50.814Z,52.90
2018-06-07T20:29:17.207Z,52.94
2018-06-07T20:31:43.582Z,52.94
2018-06-07T20:34:09.916Z,52.88
2018-06-07T20:36:36.252Z,52.96
2018-06-07T20:39:02.736Z,52.94
2018-06-07T20:41:29.100Z,52.90
2018-06-07T20:43:55.464Z,52.79
2018-06-07T20:46:21.828Z,52.91
2018-06-07T20:48:48.228Z,52.91
2018-06-07T20:51:14.576Z,52.94
2018-06-07T20:53:40.964Z,52.89
2018-06-07T20:56:07.284Z,53.07
2018-06-07T20:58:33.724Z,53.06
2018-06-07T21:01:00.141Z,53.01
2018-06-07T21:03:26.514Z,53.06
2018-06-07T21:05:52.882Z,52.92
2018-06-07T21:08:19.295Z,52.98
2018-06-07T21:10:45.657Z,53.13
2018-06-07T21:13:12.011Z,53.10
2018-06-07T21:15:38.335Z,53.18
2018-06-07T21:18:04.869Z,53.07
2018-06-07T21:20:31.360Z,53.07
2018-06-07T21:22:57.842Z,53.01
2018-06-07T21:25:24.220Z,53.03
2018-06-07T21:27:50.563Z,53.07
2018-06-07T21:30:16.944Z,53.11
2018-06-07T21:32:43.320Z,53.05
2018-06-07T21:35:09.714Z,53.07
2018-06-07T21:37:36.152Z,53.04
2018-06-07T21:40:02.627Z,53.07
2018-06-07T21:42:28.976Z,52.98
2018-06-07T21:44:55.295Z,53.07
2018-06-07T21:47:21.673Z,53.07
2018-06-07T21:49:48.177Z,53.17
2018-06-07T21:52:14.618Z,53.14
2018-06-07T21:54:41.028Z,53.16
2018-06-07T21:57:07.395Z,53.20
2018-06-07T21:59:33.813Z,53.09
2018-06-07T22:02:00.144Z,53.14
2018-06-07T22:04:26.475Z,53.23
2018-06-07T22:06:52.902Z,53.18
2018-06-07T22:09:19.374Z,53.17
2018-06-07T22:11:45.709Z,53.21
2018-06-07T22:14:12.203Z,53.20
2018-06-07T22:16:38.528Z,53.07
2018-06-07T22:19:04.939Z,53.07
2018-06-07T22:21:31.360Z,52.98
2018-06-07T22:23:57.727Z,53.18
2018-06-07T22:26:24.195Z,53.07
2018-06-07T22:28:50.552Z,53.06
2018-06-07T22:31:16.962Z,53.04
2018-06-07T22:33:43.357Z,53.01
2018-06-07T22:36:09.730Z,53.01
2018-06-07T22:38:36.163Z,53.06
2018-06-07T22:41:02.491Z,53.06
2018-06-07T22:43:28.893Z,52.91
2018-06-07T22:45:55.261Z,52.97
2018-06-07T22:48:21.681Z,52.99
2018-06-07T22:50:48.029Z,53.02
2018-06-07T22:53:14.395Z,52.92
2018-06-07T22:55:40.781Z,53.02
2018-06-07T22:58:07.099Z,52.86
2018-06-07T23:00:33.873Z,52.96
2018-06-07T23:03:00.224Z,52.85
2018-06-07T23:05:26.590Z,53.01
2018-06-07T23:07:53.098Z,52.97
2018-06-07T23:10:19.463Z,52.85
2018-06-07T23:12:45.908Z,52.91
2018-06-07T23:15:12.300Z,52.97
2018-06-07T23:17:38.616Z,53.02
2018-06-07T23:20:04.989Z,52.94
2018-06-07T23:22:31.323Z,53.01
2018-06-07T23:24:57.700Z,53.01
2018-06-07T23:27:24.024Z,52.98
2018-06-07T23:29:50.407Z,53.04
2018-06-07T23:32:16.794Z,53.10
2018-06-07T23:34:43.253Z,53.10
2018-06-07T23:37:09.615Z,53.03
2018-06-07T23:39:36.057Z,53.08
2018-06-07T23:42:02.509Z,53.06
2018-06-07T23:44:28.887Z,52.99
2018-06-07T23:46:55.255Z,53.14
2018-06-07T23:49:21.605Z,53.07
2018-06-07T23:51:56.009Z,53.04
2018-06-07T23:54:22.364Z,53.09
2018-06-07T23:56:48.750Z,53.01
2018-06-07T23:59:15.128Z,53.11
